Cape Girardeau Regional Airport
KCGI : rendu visible

Aérodrome :











RETROUVEZ-NOUS SUR...

 
LOGIN :

S'inscrire | Disclaimer

   EN    FR    IT 

 









Légende :    VFR   VFR Marginal   IFR   IFR Intensif   IFR Très Intensif
Visi : 
Plafond : 
>= 8 km
>= 3000ft
5 à 8 km
1000 à 3000 ft
1500m à 5 km
500 à 1000 ft
800 à 1500m
200 à 500 ft
< 800m
< 200 ft
Symboles :   Orages  Brouillard  Fortes neiges  Fortes précipitations  Vent > 20 kt






- Altitude de l'aérodrome : 342 ft
- Code IATA : CGI


KCGI - Cape Girardeau Regional

DERNIER METAR :
  • 271253Z 14008KT 5SM -RA BR FEW006 BKN014 OVC022 21/19 A2988 RMK AO2 SLP116 P0013 T02060194

METARs EXPIRÉS :
  • 271236Z 14005KT 4SM -RA BR FEW006 SCT013 OVC022 21/19 A2988 RMK AO2 P0012 T02060194
  • 271209Z 14008KT 2 1/2SM R10/5000VP6000FT RA BR FEW005 FEW010 OVC018 21/19 A2988 RMK AO2 VIS 1V5 P0007 T02060194
  • 271202Z 13008KT 1 3/4SM R10/5500VP6000FT +RA BR FEW006 SCT010 OVC018 21/19 A2988 RMK AO2 P0005 T02060194
  • 271143Z 14007KT 1 1/4SM R10/4500VP6000FT +RA BR BKN006 BKN018 OVC024 21/19 A2988 RMK AO2 RAB33 P0008 T02060194
  • 271107Z AUTO 14006KT 2 1/2SM BR OVC008 21/19 A2988 RMK AO2 T02060194
  • 271053Z AUTO 13006KT 4SM BR BKN006 OVC011 21/19 A2987 RMK AO2 SLP112 T02060194
  • 271041Z AUTO 13007KT 2 1/2SM BR BKN007 OVC013 21/19 A2987 RMK AO2 T02060194
  • 271035Z AUTO 13007KT 3SM BR SCT007 BKN011 OVC017 21/19 A2987 RMK AO2 T02060194
  • 271006Z AUTO 14008KT 2 1/2SM BR BKN006 BKN010 OVC015 21/19 A2987 RMK AO2 T02060194
  • 270953Z AUTO 14008KT 3SM BR BKN006 OVC010 21/19 A2987 RMK AO2 SLP110 T02060194

TAF KCGI
Valide du 27 à 12h jusqu'au 28 à 12h UTC


271140Z 2712/2812 13008KT 3SM -RA BR OVC007
TEMPO 2712/2716 2SM +SHRA BR OVC005
FM271900 15009KT P6SM VCSH OVC015
FM272300 14006KT P6SM BKN200
FM280800 16003KT 5SM -SHRA BR BKN035
FIR KZME / Amérique du Nord



MET'MAP, la Météo Aéronautique d'un coup d'oeil ! - Copyright ORBIFLY Décembre 2007 - Disclaimer

ORBIFLY MET'MAP TEAM :

Programmation & Développement : Alexandra Zaïnal
Sur une idée originale de : Baudouin d'Aumeries
Assistance à la programmation : Marc-Olivier Méhu
Soutien technique & logistique : Manuel Goepfert

Contact : metmap@orbifly.com




SOURCES & CREDITS :

   NOAA       Earth
Advisory